createdAt,value
2022-08-14T00:01:42.868Z,-11358.34
2022-08-14T00:05:01.181Z,-11355.66
2022-08-14T00:08:14.532Z,-11346.22
2022-08-14T00:11:20.883Z,-11337.63
2022-08-14T00:14:29.439Z,-11341.00
2022-08-14T00:17:42.623Z,-11345.66
2022-08-14T00:20:54.246Z,-11331.84
2022-08-14T00:24:01.772Z,-11327.22
2022-08-14T00:27:08.658Z,-11336.78
2022-08-14T00:30:17.348Z,-11334.09
2022-08-14T00:33:51.059Z,-11329.75
2022-08-14T00:36:51.792Z,-11335.09
2022-08-14T00:40:00.342Z,-11346.38
2022-08-14T00:43:07.872Z,-11347.91
2022-08-14T00:46:33.135Z,-11347.34
2022-08-14T00:49:42.632Z,-11348.47
2022-08-14T00:52:53.531Z,-11340.88
2022-08-14T00:56:00.393Z,-11348.75
2022-08-14T00:59:07.184Z,-11350.44
2022-08-14T01:02:20.040Z,-11337.06
2022-08-14T01:05:51.017Z,-11338.06
2022-08-14T01:08:59.101Z,-11340.16
2022-08-14T01:12:07.796Z,-11343.81
2022-08-14T01:15:14.722Z,-11335.94
2022-08-14T01:18:40.145Z,-11332.97
2022-08-14T01:21:53.040Z,-11342.28
2022-08-14T01:24:59.600Z,-11349.59
2022-08-14T01:28:06.520Z,-11347.22
2022-08-14T01:31:20.616Z,-11348.75
2022-08-14T01:35:21.144Z,-11351.00
2022-08-14T01:37:57.253Z,-11343.41
2022-08-14T01:41:04.147Z,-11346.78
2022-08-14T01:44:33.026Z,-11345.94
2022-08-14T01:47:40.407Z,-11347.78
2022-08-14T01:50:46.855Z,-11345.38
2022-08-14T01:53:57.230Z,-11343.41
2022-08-14T01:57:03.907Z,-11343.13
2022-08-14T02:00:16.764Z,-11335.94
2022-08-14T02:03:29.681Z,-11343.69
2022-08-14T02:06:37.525Z,-11343.41
2022-08-14T02:09:55.893Z,-11347.63
2022-08-14T02:13:08.348Z,-11345.38
2022-08-14T02:16:22.427Z,-11349.88
2022-08-14T02:19:32.499Z,-11342.28
2022-08-14T02:22:47.856Z,-11341.16
2022-08-14T02:25:55.827Z,-11344.66
2022-08-14T02:29:04.950Z,-11327.78
2022-08-14T02:32:30.665Z,-11335.78
2022-08-14T02:35:42.204Z,-11335.50
2022-08-14T02:38:49.955Z,-11340.72
2022-08-14T02:41:58.420Z,-11338.63
2022-08-14T02:45:05.381Z,-11338.91
2022-08-14T02:49:02.006Z,-11342.13
2022-08-14T02:51:38.393Z,-11343.25
2022-08-14T02:54:45.950Z,-11341.44
2022-08-14T02:58:02.992Z,-11342.56
2022-08-14T03:01:10.511Z,-11347.34
2022-08-14T03:04:17.666Z,-11347.22
2022-08-14T03:07:27.206Z,-11350.72
2022-08-14T03:10:34.715Z,-11334.38
2022-08-14T03:13:45.295Z,-11326.78
2022-08-14T03:16:51.331Z,-11329.88
2022-08-14T03:19:57.547Z,-11338.34
2022-08-14T03:23:05.133Z,-11328.47
2022-08-14T03:26:18.164Z,-11339.19
2022-08-14T03:29:29.519Z,-11347.91
2022-08-14T03:32:35.892Z,-11351.00
2022-08-14T03:36:05.101Z,-11337.22
2022-08-14T03:39:21.995Z,-11344.53
2022-08-14T03:42:36.076Z,-11349.59
2022-08-14T03:45:53.279Z,-11346.66
2022-08-14T03:49:01.390Z,-11343.97
2022-08-14T03:52:27.777Z,-11349.31
2022-08-14T03:55:36.662Z,-11347.91
2022-08-14T03:58:46.792Z,-11343.69
2022-08-14T04:02:01.467Z,-11346.50
2022-08-14T04:05:11.791Z,-11345.81
2022-08-14T04:08:23.021Z,-11342.84
2022-08-14T04:11:39.032Z,-11346.50
2022-08-14T04:14:47.082Z,-11347.63
2022-08-14T04:17:55.253Z,-11343.53
2022-08-14T04:21:04.053Z,-11342.13
2022-08-14T04:24:10.587Z,-11348.91
2022-08-14T04:27:20.309Z,-11350.16
2022-08-14T04:30:30.827Z,-11352.13
2022-08-14T04:33:41.242Z,-11355.38
2022-08-14T04:37:07.440Z,-11356.66
2022-08-14T04:40:32.924Z,-11353.25
2022-08-14T04:43:42.739Z,-11354.66
2022-08-14T04:47:02.817Z,-11363.53
2022-08-14T04:50:11.471Z,-11360.31
2022-08-14T04:53:23.102Z,-11358.47
2022-08-14T04:56:34.189Z,-11350.72
2022-08-14T04:59:42.873Z,-11353.81
2022-08-14T05:02:49.555Z,-11356.38
2022-08-14T05:05:59.735Z,-11353.13
2022-08-14T05:09:06.342Z,-11360.59
2022-08-14T05:13:24.312Z,-11358.06
2022-08-14T05:15:41.596Z,-11359.75
2022-08-14T05:19:25.227Z,-11356.38
2022-08-14T05:22:19.229Z,-11355.50
2022-08-14T05:25:25.850Z,-11371.00
2022-08-14T05:28:37.914Z,-11367.50
2022-08-14T05:31:44.521Z,-11369.88
2022-08-14T05:34:50.975Z,-11380.88
2022-08-14T05:37:59.474Z,-11368.06
2022-08-14T05:41:19.279Z,-11375.53
2022-08-14T05:44:29.930Z,-11372.72
2022-08-14T05:47:41.879Z,-11389.63
2022-08-14T05:50:49.602Z,-11386.50
2022-08-14T05:54:01.788Z,-11371.00
2022-08-14T05:57:19.486Z,-11375.94
2022-08-14T06:00:30.841Z,-11371.00
2022-08-14T06:03:42.393Z,-11368.75
2022-08-14T06:06:50.276Z,-11383.28
2022-08-14T06:10:01.593Z,-11383.56
2022-08-14T06:13:10.899Z,-11384.25
2022-08-14T06:16:18.992Z,-11389.34
2022-08-14T06:19:25.367Z,-11384.13
2022-08-14T06:22:31.691Z,-11381.72
2022-08-14T06:25:44.831Z,-11371.00
2022-08-14T06:29:00.061Z,-11368.19
2022-08-14T06:32:36.547Z,-11382.84
2022-08-14T06:35:33.535Z,-11388.75
2022-08-14T06:38:40.307Z,-11386.94
2022-08-14T06:41:57.971Z,-11371.28
2022-08-14T06:45:06.280Z,-11381.03
2022-08-14T06:48:17.782Z,-11391.03
2022-08-14T06:51:24.398Z,-11385.53
2022-08-14T06:54:40.519Z,-11391.59
2022-08-14T06:57:52.803Z,-11386.94
2022-08-14T07:01:19.291Z,-11388.19
2022-08-14T07:04:47.152Z,-11379.19
2022-08-14T07:07:53.558Z,-11374.25
2022-08-14T07:11:01.191Z,-11376.09
2022-08-14T07:14:09.567Z,-11380.03
2022-08-14T07:17:15.739Z,-11387.06
2022-08-14T07:20:30.804Z,-11393.97
2022-08-14T07:23:40.083Z,-11386.94
2022-08-14T07:26:50.520Z,-11397.22
2022-08-14T07:29:58.766Z,-11400.59
2022-08-14T07:33:05.493Z,-11410.19
2022-08-14T07:36:27.840Z,-11407.38
2022-08-14T07:39:36.750Z,-11391.31
2022-08-14T07:42:45.719Z,-11399.19
2022-08-14T07:45:54.222Z,-11400.59
2022-08-14T07:49:00.692Z,-11411.75
2022-08-14T07:52:08.652Z,-11394.81
2022-08-14T07:55:16.874Z,-11409.50
2022-08-14T07:58:34.605Z,-11413.56
2022-08-14T08:01:48.357Z,-11408.34
2022-08-14T08:05:00.222Z,-11422.88
2022-08-14T08:08:08.273Z,-11400.59
2022-08-14T08:11:37.361Z,-11407.22
2022-08-14T08:14:56.743Z,-11407.66
2022-08-14T08:18:20.539Z,-11412.44
2022-08-14T08:21:35.651Z,-11418.50
2022-08-14T08:24:41.920Z,-11413.28
2022-08-14T08:27:59.672Z,-11412.88
2022-08-14T08:31:08.233Z,-11406.25
2022-08-14T08:34:18.296Z,-11409.91
2022-08-14T08:37:25.169Z,-11409.91
2022-08-14T08:40:42.282Z,-11412.16
2022-08-14T08:43:48.681Z,-11408.50
2022-08-14T08:47:03.455Z,-11410.63
2022-08-14T08:50:31.663Z,-11409.91
2022-08-14T08:53:38.004Z,-11404.56
2022-08-14T08:56:50.112Z,-11403.84
2022-08-14T08:59:58.540Z,-11404.00
2022-08-14T09:03:10.093Z,-11404.84
2022-08-14T09:06:56.915Z,-11402.56
2022-08-14T09:09:53.487Z,-11409.34
2022-08-14T09:13:04.755Z,-11415.25
2022-08-14T09:16:19.092Z,-11415.53
2022-08-14T09:19:26.015Z,-11408.78
2022-08-14T09:22:42.324Z,-11412.03
2022-08-14T09:26:01.708Z,-11415.41
2022-08-14T09:29:12.557Z,-11419.34
2022-08-14T09:33:09.312Z,-11416.81
2022-08-14T09:36:09.203Z,-11413.56
2022-08-14T09:39:30.967Z,-11418.09
2022-08-14T09:42:53.997Z,-11413.84
2022-08-14T09:46:02.719Z,-11415.97
2022-08-14T09:49:12.133Z,-11409.91
2022-08-14T09:52:34.276Z,-11417.78
2022-08-14T09:55:42.845Z,-11420.34
2022-08-14T09:58:49.133Z,-11420.34
2022-08-14T10:01:55.604Z,-11422.03
2022-08-14T10:05:03.909Z,-11427.25
2022-08-14T10:08:25.418Z,-11422.03
2022-08-14T10:11:36.097Z,-11432.59
2022-08-14T10:14:43.039Z,-11431.63
2022-08-14T10:18:13.279Z,-11433.44
2022-08-14T10:21:23.911Z,-11433.31
2022-08-14T10:24:37.417Z,-11431.34
2022-08-14T10:27:46.710Z,-11427.09
2022-08-14T10:30:54.676Z,-11428.09
2022-08-14T10:34:04.429Z,-11431.34
2022-08-14T10:37:23.777Z,-11419.91
2022-08-14T10:40:43.484Z,-11427.94
2022-08-14T10:44:20.983Z,-11428.53
2022-08-14T10:47:40.690Z,-11430.78
2022-08-14T10:51:02.326Z,-11425.84
2022-08-14T10:54:35.010Z,-11429.66
2022-08-14T10:57:53.385Z,-11431.75
2022-08-14T11:01:08.182Z,-11435.41
2022-08-14T11:04:30.418Z,-11439.09
2022-08-14T11:07:39.773Z,-11443.19
2022-08-14T11:10:48.531Z,-11446.28
2022-08-14T11:13:58.638Z,-11443.75
2022-08-14T11:17:06.668Z,-11455.88
2022-08-14T11:20:17.577Z,-11444.59
2022-08-14T11:23:38.101Z,-11451.34
2022-08-14T11:26:46.363Z,-11456.44
2022-08-14T11:30:00.316Z,-11454.47
2022-08-14T11:33:25.716Z,-11460.38
2022-08-14T11:36:57.264Z,-11475.47
2022-08-14T11:39:59.518Z,-11472.78
2022-08-14T11:43:08.621Z,-11465.44
2022-08-14T11:46:17.939Z,-11466.16
2022-08-14T11:49:40.424Z,-11473.06
2022-08-14T11:52:50.710Z,-11475.91
2022-08-14T11:56:05.566Z,-11479.00
2022-08-14T11:59:18.330Z,-11473.50
2022-08-14T12:03:01.298Z,-11475.75
2022-08-14T12:05:52.286Z,-11490.00
2022-08-14T12:08:59.794Z,-11487.75
2022-08-14T12:12:16.240Z,-11488.59
2022-08-14T12:15:44.700Z,-11482.53
2022-08-14T12:18:51.357Z,-11487.47
2022-08-14T12:22:01.887Z,-11490.84
2022-08-14T12:25:11.614Z,-11475.34
2022-08-14T12:28:27.273Z,-11487.75
2022-08-14T12:31:44.516Z,-11490.84
2022-08-14T12:34:56.423Z,-11492.13
2022-08-14T12:38:04.735Z,-11499.31
2022-08-14T12:41:20.285Z,-11512.41
2022-08-14T12:44:32.277Z,-11490.13
2022-08-14T12:47:39.223Z,-11515.53
2022-08-14T12:50:49.763Z,-11515.38
2022-08-14T12:54:00.082Z,-11519.34
2022-08-14T12:57:09.208Z,-11524.69
2022-08-14T13:00:22.414Z,-11527.09
2022-08-14T13:03:31.421Z,-11530.63
2022-08-14T13:06:39.308Z,-11521.72
2022-08-14T13:09:47.267Z,-11526.94
2022-08-14T13:13:15.415Z,-11548.13
2022-08-14T13:16:37.797Z,-11547.28
2022-08-14T13:19:46.495Z,-11542.75
2022-08-14T13:22:56.104Z,-11533.44
2022-08-14T13:26:05.063Z,-11552.22
2022-08-14T13:29:12.557Z,-11572.81
2022-08-14T13:32:20.515Z,-11582.69
2022-08-14T13:35:27.725Z,-11545.88
2022-08-14T13:38:37.006Z,-11542.75
2022-08-14T13:41:45.628Z,-11546.84
2022-08-14T13:44:55.622Z,-11568.59
2022-08-14T13:48:05.023Z,-11584.94
2022-08-14T13:51:13.298Z,-11575.78
2022-08-14T13:54:22.730Z,-11556.59
2022-08-14T13:57:33.438Z,-11555.31
2022-08-14T14:00:53.201Z,-11554.47
2022-08-14T14:04:02.194Z,-11553.91
2022-08-14T14:07:11.618Z,-11555.03
2022-08-14T14:10:28.186Z,-11565.06
2022-08-14T14:13:37.354Z,-11572.13
2022-08-14T14:16:48.712Z,-11577.91
2022-08-14T14:19:56.374Z,-11542.19
2022-08-14T14:23:09.569Z,-11567.59
2022-08-14T14:26:23.140Z,-11548.25
2022-08-14T14:29:36.798Z,-11541.22
2022-08-14T14:33:04.284Z,-11539.94
2022-08-14T14:36:14.047Z,-11527.81
2022-08-14T14:39:23.403Z,-11525.25
2022-08-14T14:42:35.415Z,-11538.25
2022-08-14T14:45:45.616Z,-11556.31
2022-08-14T14:48:54.525Z,-11565.19
2022-08-14T14:52:03.929Z,-11573.94
2022-08-14T14:55:13.658Z,-11604.56
2022-08-14T14:58:24.058Z,-11600.63
2022-08-14T15:01:34.152Z,-11606.00
2022-08-14T15:04:43.805Z,-11604.84
2022-08-14T15:07:52.794Z,-11577.06
2022-08-14T15:10:59.999Z,-11560.81
2022-08-14T15:14:54.053Z,-11540.63
2022-08-14T15:17:41.307Z,-11545.72
2022-08-14T15:20:48.259Z,-11530.34
2022-08-14T15:23:55.923Z,-11527.81
2022-08-14T15:27:06.833Z,-11525.13
2022-08-14T15:30:14.779Z,-11520.75
2022-08-14T15:34:00.940Z,-11523.56
2022-08-14T15:37:16.920Z,-11511.16
2022-08-14T15:40:23.727Z,-11518.34
2022-08-14T15:43:33.750Z,-11513.69
2022-08-14T15:46:43.332Z,-11519.63
2022-08-14T15:49:56.273Z,-11520.19
2022-08-14T15:53:05.610Z,-11516.38
2022-08-14T15:56:11.977Z,-11517.63
2022-08-14T15:59:56.174Z,-11519.47
2022-08-14T16:03:02.719Z,-11521.31
2022-08-14T16:06:15.310Z,-11515.66
2022-08-14T16:09:23.987Z,-11519.34
2022-08-14T16:12:41.619Z,-11503.69
2022-08-14T16:15:53.834Z,-11506.50
2022-08-14T16:19:03.267Z,-11507.78
2022-08-14T16:22:59.103Z,-11491.69
2022-08-14T16:25:40.932Z,-11503.97
2022-08-14T16:28:50.593Z,-11494.78
2022-08-14T16:31:58.656Z,-11497.03
2022-08-14T16:35:05.372Z,-11493.38
2022-08-14T16:38:29.355Z,-11485.19
2022-08-14T16:41:52.310Z,-11487.03
2022-08-14T16:45:01.243Z,-11484.34
2022-08-14T16:48:54.768Z,-11491.97
2022-08-14T16:51:40.752Z,-11475.19
2022-08-14T16:54:48.535Z,-11473.63
2022-08-14T16:57:58.636Z,-11473.34
2022-08-14T17:01:24.795Z,-11476.59
2022-08-14T17:04:34.666Z,-11482.66
2022-08-14T17:08:28.289Z,-11476.03
2022-08-14T17:11:54.372Z,-11475.91
2022-08-14T17:15:03.869Z,-11476.47
2022-08-14T17:18:22.488Z,-11464.88
2022-08-14T17:21:40.989Z,-11463.47
2022-08-14T17:24:57.849Z,-11456.56
2022-08-14T17:28:51.740Z,-11459.25
2022-08-14T17:31:58.253Z,-11460.09
2022-08-14T17:35:10.106Z,-11453.91
2022-08-14T17:38:39.286Z,-11449.38
2022-08-14T17:41:47.825Z,-11450.22
2022-08-14T17:45:10.643Z,-11447.97
2022-08-14T17:49:10.119Z,-11439.22
2022-08-14T17:52:01.533Z,-11444.59
2022-08-14T17:55:09.979Z,-11437.69
2022-08-14T17:58:22.454Z,-11440.91
2022-08-14T18:01:31.220Z,-11438.66
2022-08-14T18:04:39.522Z,-11430.63
2022-08-14T18:08:31.424Z,-11427.81
2022-08-14T18:11:23.096Z,-11425.97
2022-08-14T18:14:32.180Z,-11416.09
2022-08-14T18:17:44.657Z,-11413.28
2022-08-14T18:21:42.735Z,-11405.97
2022-08-14T18:24:29.369Z,-11402.56
2022-08-14T18:27:41.805Z,-11405.13
2022-08-14T18:30:58.294Z,-11400.19
2022-08-14T18:34:12.238Z,-11395.81
2022-08-14T18:37:55.866Z,-11397.78
2022-08-14T18:41:37.432Z,-11394.97
2022-08-14T18:45:12.672Z,-11390.75
2022-08-14T18:48:50.707Z,-11391.31
2022-08-14T18:52:19.014Z,-11388.19
2022-08-14T18:55:53.072Z,-11381.31
2022-08-14T18:59:00.574Z,-11384.53
2022-08-14T19:02:44.563Z,-11378.91
2022-08-14T19:05:58.540Z,-11386.50
2022-08-14T19:09:07.533Z,-11382.84
2022-08-14T19:12:38.237Z,-11375.81
2022-08-14T19:16:06.932Z,-11375.94
2022-08-14T19:19:15.639Z,-11375.25
2022-08-14T19:22:30.483Z,-11373.56
2022-08-14T19:25:54.452Z,-11373.28
2022-08-14T19:29:00.852Z,-11369.88
2022-08-14T19:32:41.931Z,-11367.22
2022-08-14T19:35:56.072Z,-11366.38
2022-08-14T19:39:07.004Z,-11368.47
2022-08-14T19:42:28.485Z,-11369.59
2022-08-14T19:45:38.774Z,-11365.81
2022-08-14T19:48:56.667Z,-11366.78
2022-08-14T19:52:03.991Z,-11362.69
2022-08-14T19:55:34.020Z,-11362.97
2022-08-14T19:58:54.823Z,-11364.53
2022-08-14T20:02:05.942Z,-11358.63
2022-08-14T20:05:13.769Z,-11354.66
2022-08-14T20:10:58.268Z,-11357.78
2022-08-14T20:12:02.885Z,-11359.19
2022-08-14T20:15:17.816Z,-11351.72
2022-08-14T20:18:50.223Z,-11355.09
2022-08-14T20:22:04.697Z,-11354.94
2022-08-14T20:25:25.199Z,-11352.97
2022-08-14T20:28:35.458Z,-11350.16
2022-08-14T20:31:42.127Z,-11347.50
2022-08-14T20:34:51.317Z,-11344.09
2022-08-14T20:38:30.438Z,-11344.81
2022-08-14T20:41:31.442Z,-11345.66
2022-08-14T20:45:04.138Z,-11344.25
2022-08-14T20:48:10.557Z,-11339.19
2022-08-14T20:51:24.191Z,-11342.00
2022-08-14T20:54:36.300Z,-11344.53
2022-08-14T20:57:44.293Z,-11338.75
2022-08-14T21:01:00.780Z,-11340.88
2022-08-14T21:07:25.530Z,-11338.63
2022-08-14T21:10:44.143Z,-11330.72
2022-08-14T21:14:19.521Z,-11320.88
2022-08-14T21:17:18.878Z,-11321.84
2022-08-14T21:20:28.862Z,-11311.84
2022-08-14T21:23:54.528Z,-11314.41
2022-08-14T21:27:19.834Z,-11329.19
2022-08-14T21:30:51.961Z,-11330.44
2022-08-14T21:33:56.407Z,-11319.87
2022-08-14T21:37:09.861Z,-11327.06
2022-08-14T21:40:42.303Z,-11330.72
2022-08-14T21:44:17.372Z,-11329.31
2022-08-14T21:47:24.663Z,-11326.66
2022-08-14T21:50:56.268Z,-11330.16
2022-08-14T21:54:00.326Z,-11329.59
2022-08-14T21:57:13.764Z,-11332.69
2022-08-14T22:00:30.284Z,-11332.41
2022-08-14T22:03:45.168Z,-11331.56
2022-08-14T22:07:00.919Z,-11325.38
2022-08-14T22:10:07.938Z,-11324.81
2022-08-14T22:13:17.235Z,-11331.28
2022-08-14T22:17:00.053Z,-11331.16
2022-08-14T22:19:54.931Z,-11331.28
2022-08-14T22:23:06.627Z,-11326.94
2022-08-14T22:26:13.146Z,-11322.56
2022-08-14T22:29:30.907Z,-11318.91
2022-08-14T22:32:56.337Z,-11321.84
2022-08-14T22:36:26.205Z,-11319.75
2022-08-14T22:40:16.974Z,-11305.94
2022-08-14T22:43:08.098Z,-11301.03
2022-08-14T22:46:20.622Z,-11306.38
2022-08-14T22:50:30.303Z,-11320.88
2022-08-14T22:52:55.626Z,-11296.66
2022-08-14T22:56:04.557Z,-11292.16
2022-08-14T22:59:11.503Z,-11289.06
2022-08-14T23:02:30.362Z,-11295.25
2022-08-14T23:05:39.183Z,-11293.56
2022-08-14T23:09:34.557Z,-11287.06
2022-08-14T23:12:27.386Z,-11287.34
2022-08-14T23:15:35.734Z,-11295.81
2022-08-14T23:18:46.575Z,-11301.72
2022-08-14T23:21:54.582Z,-11301.59
2022-08-14T23:25:01.171Z,-11299.19
2022-08-14T23:28:33.459Z,-11302.44
2022-08-14T23:31:37.092Z,-11296.09
2022-08-14T23:34:48.325Z,-11291.88
2022-08-14T23:38:01.864Z,-11291.59
2022-08-14T23:41:11.590Z,-11292.28
2022-08-14T23:44:20.494Z,-11296.66
2022-08-14T23:47:28.046Z,-11280.75
2022-08-14T23:50:39.047Z,-11291.59
2022-08-14T23:53:51.408Z,-11296.50
2022-08-14T23:57:02.873Z,-11304.69
